TimeEDT,TemperatureF,Dew PointF,Humidity,Sea Level PressureIn,VisibilityMPH,Wind Direction,Wind SpeedMPH,Gust SpeedMPH,PrecipitationIn,Events,Conditions,WindDirDegrees,DateUTC
12:53 AM,84.0,75.0,74,29.94,10.0,ESE,17.3,24.2,N/A,,Clear,110,2013-08-08 04:53:00
1:53 AM,84.0,75.0,74,29.93,10.0,ESE,17.3,-,N/A,,Clear,120,2013-08-08 05:53:00
2:53 AM,84.0,75.0,74,29.92,10.0,SE,12.7,-,N/A,,Scattered Clouds,130,2013-08-08 06:53:00
3:53 AM,84.0,75.0,74,29.90,10.0,ESE,16.1,21.9,0.00,,Scattered Clouds,120,2013-08-08 07:53:00
4:53 AM,82.9,75.0,77,29.90,10.0,SE,18.4,26.5,N/A,,Partly Cloudy,130,2013-08-08 08:53:00
5:53 AM,81.0,75.0,82,29.91,10.0,East,8.1,21.9,0.00,,Partly Cloudy,80,2013-08-08 09:53:00
6:09 AM,80.6,75.2,84,29.92,10.0,ESE,19.6,26.5,N/A,Thunderstorm,Scattered Clouds,110,2013-08-08 10:09:00
6:15 AM,78.8,73.4,83,29.92,1.8,ESE,31.1,40.3,0.00,Rain-Thunderstorm,Heavy Rain,120,2013-08-08 10:15:00
6:19 AM,75.2,71.6,89,29.92,1.0,ESE,15.0,40.3,0.13,Rain,Heavy Rain,120,2013-08-08 10:19:00
6:22 AM,77.0,71.6,83,29.92,1.2,SE,10.4,40.3,0.25,Rain,Heavy Rain,130,2013-08-08 10:22:00
6:28 AM,77.0,73.4,89,29.91,3.0,SE,10.4,-,0.29,Rain,Rain,130,2013-08-08 10:28:00
6:35 AM,78.8,73.4,83,29.91,10.0,ESE,10.4,-,0.29,Rain,Light Rain,110,2013-08-08 10:35:00
6:39 AM,78.8,75.2,89,29.91,10.0,ESE,12.7,-,0.29,,Mostly Cloudy,110,2013-08-08 10:39:00
6:53 AM,80.1,75.0,85,-9999,10.0,ESE,10.4,-,0.29,,Partly Cloudy,120,2013-08-08 10:53:00
7:53 AM,82.0,75.9,82,29.93,10.0,ESE,9.2,-,0.00,,Mostly Cloudy,120,2013-08-08 11:53:00
8:09 AM,82.4,77.0,84,29.93,10.0,East,6.9,-,0.00,Rain,Light Rain,90,2013-08-08 12:09:00
8:16 AM,82.4,77.0,84,29.93,10.0,East,9.2,-,0.00,Rain,Light Rain,80,2013-08-08 12:16:00
8:35 AM,77.0,73.4,89,29.94,1.5,ESE,17.3,39.1,0.00,Rain,Heavy Rain,120,2013-08-08 12:35:00
8:38 AM,77.0,73.4,89,29.93,1.0,SE,9.2,39.1,0.05,Rain,Heavy Rain,140,2013-08-08 12:38:00
8:44 AM,78.8,73.4,83,29.94,2.0,ESE,10.4,-,0.13,Rain,Light Rain,110,2013-08-08 12:44:00
8:53 AM,79.0,75.0,88,29.94,10.0,East,11.5,-,0.13,Rain,Light Rain,100,2013-08-08 12:53:00
9:53 AM,82.9,75.0,77,29.96,10.0,ESE,11.5,-,0.00,,Mostly Cloudy,110,2013-08-08 13:53:00
10:53 AM,82.9,73.9,74,29.96,10.0,SE,18.4,24.2,N/A,,Partly Cloudy,130,2013-08-08 14:53:00
11:53 AM,87.1,75.0,67,29.97,10.0,ESE,12.7,-,N/A,,Clear,120,2013-08-08 15:53:00
12:53 PM,87.1,75.9,69,29.96,10.0,ESE,15.0,24.2,N/A,,Clear,120,2013-08-08 16:53:00
1:53 PM,88.0,77.0,70,29.96,10.0,ESE,13.8,-,N/A,,Partly Cloudy,120,2013-08-08 17:53:00
2:53 PM,87.1,75.0,67,29.95,10.0,ESE,17.3,-,N/A,,Clear,120,2013-08-08 18:53:00
3:53 PM,88.0,73.9,63,29.94,10.0,ESE,15.0,-,N/A,,Clear,120,2013-08-08 19:53:00
4:53 PM,87.1,75.0,67,29.93,10.0,ESE,12.7,-,N/A,,Clear,120,2013-08-08 20:53:00
5:53 PM,87.1,75.0,67,29.91,10.0,ESE,16.1,-,N/A,,Clear,110,2013-08-08 21:53:00
6:53 PM,84.9,75.0,72,29.92,10.0,East,17.3,21.9,N/A,,Partly Cloudy,100,2013-08-08 22:53:00
7:53 PM,84.0,73.9,72,29.93,10.0,East,13.8,-,N/A,,Clear,100,2013-08-08 23:53:00
8:53 PM,84.0,73.9,72,29.96,10.0,ESE,18.4,-,N/A,,Clear,110,2013-08-09 00:53:00
9:53 PM,84.0,75.0,74,29.97,10.0,ESE,15.0,-,N/A,,Partly Cloudy,110,2013-08-09 01:53:00
10:53 PM,84.0,73.9,72,29.97,10.0,East,16.1,-,N/A,,Partly Cloudy,100,2013-08-09 02:53:00
11:53 PM,84.0,73.0,69,29.97,10.0,East,17.3,-,N/A,,Clear,100,2013-08-09 03:53:00